sensor_id;sensor_type;location;lat;lon;timestamp;P1;durP1;ratioP1;P2;durP2;ratioP2
13580;SDS011;6861;46.170;7.222;2023-05-07T00:01:14;3.10;;;1.77;;
13580;SDS011;6861;46.170;7.222;2023-05-07T00:03:44;3.22;;;1.60;;
13580;SDS011;6861;46.170;7.222;2023-05-07T00:06:13;3.40;;;1.48;;
13580;SDS011;6861;46.170;7.222;2023-05-07T00:08:42;3.65;;;1.70;;
13580;SDS011;6861;46.170;7.222;2023-05-07T00:11:11;2.50;;;1.63;;
13580;SDS011;6861;46.170;7.222;2023-05-07T00:13:39;2.25;;;1.70;;
13580;SDS011;6861;46.170;7.222;2023-05-07T00:16:07;4.60;;;2.10;;
13580;SDS011;6861;46.170;7.222;2023-05-07T00:18:35;4.00;;;1.98;;
13580;SDS011;6861;46.170;7.222;2023-05-07T00:21:04;2.10;;;1.63;;
13580;SDS011;6861;46.170;7.222;2023-05-07T00:23:32;3.85;;;1.52;;
13580;SDS011;6861;46.170;7.222;2023-05-07T00:26:01;2.45;;;1.60;;
13580;SDS011;6861;46.170;7.222;2023-05-07T00:28:30;2.83;;;1.55;;
13580;SDS011;6861;46.170;7.222;2023-05-07T00:30:58;3.00;;;1.58;;
13580;SDS011;6861;46.170;7.222;2023-05-07T00:33:26;4.43;;;1.80;;
13580;SDS011;6861;46.170;7.222;2023-05-07T00:35:54;2.33;;;1.60;;
13580;SDS011;6861;46.170;7.222;2023-05-07T00:38:22;3.33;;;1.55;;
13580;SDS011;6861;46.170;7.222;2023-05-07T00:40:50;3.92;;;1.60;;
13580;SDS011;6861;46.170;7.222;2023-05-07T00:43:20;4.35;;;1.70;;
13580;SDS011;6861;46.170;7.222;2023-05-07T00:45:48;4.22;;;1.85;;
13580;SDS011;6861;46.170;7.222;2023-05-07T00:48:17;3.00;;;1.58;;
13580;SDS011;6861;46.170;7.222;2023-05-07T00:50:46;5.05;;;1.90;;
13580;SDS011;6861;46.170;7.222;2023-05-07T00:53:14;4.30;;;1.65;;
13580;SDS011;6861;46.170;7.222;2023-05-07T00:55:42;3.03;;;1.90;;
13580;SDS011;6861;46.170;7.222;2023-05-07T00:58:11;2.80;;;1.80;;
13580;SDS011;6861;46.170;7.222;2023-05-07T01:00:40;2.50;;;2.10;;
13580;SDS011;6861;46.170;7.222;2023-05-07T01:03:09;3.92;;;1.90;;
13580;SDS011;6861;46.170;7.222;2023-05-07T01:05:37;4.25;;;2.00;;
13580;SDS011;6861;46.170;7.222;2023-05-07T01:08:06;3.25;;;1.70;;
13580;SDS011;6861;46.170;7.222;2023-05-07T01:10:34;5.50;;;1.85;;
13580;SDS011;6861;46.170;7.222;2023-05-07T01:13:02;5.45;;;1.95;;
13580;SDS011;6861;46.170;7.222;2023-05-07T01:15:32;3.95;;;2.00;;
13580;SDS011;6861;46.170;7.222;2023-05-07T01:18:01;5.18;;;1.75;;
13580;SDS011;6861;46.170;7.222;2023-05-07T01:20:30;3.50;;;1.65;;
13580;SDS011;6861;46.170;7.222;2023-05-07T01:23:00;3.08;;;1.80;;
13580;SDS011;6861;46.170;7.222;2023-05-07T01:25:29;3.65;;;1.90;;
13580;SDS011;6861;46.170;7.222;2023-05-07T01:27:57;2.08;;;1.65;;
13580;SDS011;6861;46.170;7.222;2023-05-07T01:30:26;5.78;;;1.70;;
13580;SDS011;6861;46.170;7.222;2023-05-07T01:32:57;2.42;;;1.50;;
13580;SDS011;6861;46.170;7.222;2023-05-07T01:35:29;5.45;;;1.90;;
13580;SDS011;6861;46.170;7.222;2023-05-07T01:38:01;3.50;;;1.70;;
13580;SDS011;6861;46.170;7.222;2023-05-07T01:40:32;2.75;;;1.63;;
13580;SDS011;6861;46.170;7.222;2023-05-07T01:43:01;8.13;;;2.03;;
13580;SDS011;6861;46.170;7.222;2023-05-07T01:45:30;2.70;;;1.90;;
13580;SDS011;6861;46.170;7.222;2023-05-07T01:47:59;2.10;;;1.73;;
13580;SDS011;6861;46.170;7.222;2023-05-07T01:50:28;5.05;;;1.92;;
13580;SDS011;6861;46.170;7.222;2023-05-07T01:52:58;3.33;;;2.00;;
13580;SDS011;6861;46.170;7.222;2023-05-07T01:55:28;4.03;;;1.92;;
13580;SDS011;6861;46.170;7.222;2023-05-07T01:57:56;5.53;;;2.20;;
13580;SDS011;6861;46.170;7.222;2023-05-07T02:00:25;3.08;;;1.80;;
13580;SDS011;6861;46.170;7.222;2023-05-07T02:02:53;2.92;;;2.20;;
13580;SDS011;6861;46.170;7.222;2023-05-07T02:05:21;2.85;;;2.28;;
13580;SDS011;6861;46.170;7.222;2023-05-07T02:07:50;2.78;;;2.17;;
13580;SDS011;6861;46.170;7.222;2023-05-07T02:10:18;4.30;;;3.10;;
13580;SDS011;6861;46.170;7.222;2023-05-07T02:12:48;6.10;;;3.00;;
13580;SDS011;6861;46.170;7.222;2023-05-07T02:15:16;4.28;;;2.92;;
13580;SDS011;6861;46.170;7.222;2023-05-07T02:17:57;6.07;;;2.30;;
13580;SDS011;6861;46.170;7.222;2023-05-07T02:20:27;4.65;;;2.42;;
13580;SDS011;6861;46.170;7.222;2023-05-07T02:22:56;2.45;;;2.17;;
13580;SDS011;6861;46.170;7.222;2023-05-07T02:25:24;4.32;;;2.10;;
13580;SDS011;6861;46.170;7.222;2023-05-07T02:27:53;3.42;;;2.03;;
13580;SDS011;6861;46.170;7.222;2023-05-07T02:30:21;4.93;;;1.95;;
13580;SDS011;6861;46.170;7.222;2023-05-07T02:32:51;4.40;;;2.03;;
13580;SDS011;6861;46.170;7.222;2023-05-07T02:35:19;4.82;;;2.15;;
13580;SDS011;6861;46.170;7.222;2023-05-07T02:37:47;3.13;;;2.20;;
13580;SDS011;6861;46.170;7.222;2023-05-07T02:40:15;5.60;;;1.60;;
13580;SDS011;6861;46.170;7.222;2023-05-07T02:42:44;3.80;;;1.95;;
13580;SDS011;6861;46.170;7.222;2023-05-07T02:45:13;4.43;;;2.45;;
13580;SDS011;6861;46.170;7.222;2023-05-07T02:47:42;2.80;;;2.47;;
13580;SDS011;6861;46.170;7.222;2023-05-07T02:50:10;3.30;;;2.60;;
13580;SDS011;6861;46.170;7.222;2023-05-07T02:52:39;3.25;;;2.35;;
13580;SDS011;6861;46.170;7.222;2023-05-07T02:55:07;3.40;;;2.92;;
13580;SDS011;6861;46.170;7.222;2023-05-07T02:57:36;3.53;;;2.65;;
13580;SDS011;6861;46.170;7.222;2023-05-07T03:00:11;4.15;;;2.72;;
13580;SDS011;6861;46.170;7.222;2023-05-07T03:02:43;3.70;;;2.53;;
13580;SDS011;6861;46.170;7.222;2023-05-07T03:05:11;4.60;;;2.25;;
13580;SDS011;6861;46.170;7.222;2023-05-07T03:07:40;2.60;;;2.00;;
13580;SDS011;6861;46.170;7.222;2023-05-07T03:10:11;4.03;;;2.28;;
13580;SDS011;6861;46.170;7.222;2023-05-07T03:12:39;3.22;;;1.90;;
13580;SDS011;6861;46.170;7.222;2023-05-07T03:15:08;5.95;;;1.90;;
13580;SDS011;6861;46.170;7.222;2023-05-07T03:17:40;4.90;;;1.70;;
13580;SDS011;6861;46.170;7.222;2023-05-07T03:20:09;2.55;;;2.20;;
13580;SDS011;6861;46.170;7.222;2023-05-07T03:22:38;2.70;;;2.22;;
13580;SDS011;6861;46.170;7.222;2023-05-07T03:25:07;3.50;;;1.90;;
13580;SDS011;6861;46.170;7.222;2023-05-07T03:27:36;3.75;;;1.92;;
13580;SDS011;6861;46.170;7.222;2023-05-07T03:30:05;3.00;;;1.95;;
13580;SDS011;6861;46.170;7.222;2023-05-07T03:32:35;3.10;;;1.75;;
13580;SDS011;6861;46.170;7.222;2023-05-07T03:35:05;5.03;;;2.08;;
13580;SDS011;6861;46.170;7.222;2023-05-07T03:37:34;3.67;;;2.08;;
13580;SDS011;6861;46.170;7.222;2023-05-07T03:40:02;3.10;;;1.88;;
13580;SDS011;6861;46.170;7.222;2023-05-07T03:42:31;4.90;;;1.50;;
13580;SDS011;6861;46.170;7.222;2023-05-07T03:45:00;4.22;;;1.73;;
13580;SDS011;6861;46.170;7.222;2023-05-07T03:47:28;2.97;;;1.90;;
13580;SDS011;6861;46.170;7.222;2023-05-07T03:49:56;3.75;;;2.17;;
13580;SDS011;6861;46.170;7.222;2023-05-07T03:52:27;4.63;;;1.67;;
13580;SDS011;6861;46.170;7.222;2023-05-07T03:54:55;3.38;;;1.95;;
13580;SDS011;6861;46.170;7.222;2023-05-07T03:57:23;4.63;;;2.10;;
13580;SDS011;6861;46.170;7.222;2023-05-07T03:59:51;2.47;;;2.00;;
13580;SDS011;6861;46.170;7.222;2023-05-07T04:02:19;5.70;;;2.30;;
13580;SDS011;6861;46.170;7.222;2023-05-07T04:04:48;4.13;;;1.83;;
13580;SDS011;6861;46.170;7.222;2023-05-07T04:07:16;3.00;;;2.03;;
13580;SDS011;6861;46.170;7.222;2023-05-07T04:09:46;2.92;;;1.83;;
13580;SDS011;6861;46.170;7.222;2023-05-07T04:12:14;4.57;;;2.20;;
13580;SDS011;6861;46.170;7.222;2023-05-07T04:14:42;2.65;;;1.90;;
13580;SDS011;6861;46.170;7.222;2023-05-07T04:17:11;4.13;;;2.17;;
13580;SDS011;6861;46.170;7.222;2023-05-07T04:19:39;4.32;;;1.75;;
13580;SDS011;6861;46.170;7.222;2023-05-07T04:22:11;3.40;;;2.00;;
13580;SDS011;6861;46.170;7.222;2023-05-07T04:24:39;4.72;;;1.98;;
13580;SDS011;6861;46.170;7.222;2023-05-07T04:27:09;2.42;;;2.15;;
13580;SDS011;6861;46.170;7.222;2023-05-07T04:29:37;4.40;;;2.15;;
13580;SDS011;6861;46.170;7.222;2023-05-07T04:32:08;3.17;;;2.28;;
13580;SDS011;6861;46.170;7.222;2023-05-07T04:34:37;5.25;;;2.47;;
13580;SDS011;6861;46.170;7.222;2023-05-07T04:37:05;3.92;;;2.33;;
13580;SDS011;6861;46.170;7.222;2023-05-07T04:39:34;3.70;;;2.28;;
13580;SDS011;6861;46.170;7.222;2023-05-07T04:42:02;3.25;;;1.98;;
13580;SDS011;6861;46.170;7.222;2023-05-07T04:44:33;2.95;;;1.90;;
13580;SDS011;6861;46.170;7.222;2023-05-07T04:47:01;2.63;;;2.33;;
13580;SDS011;6861;46.170;7.222;2023-05-07T04:49:29;3.78;;;2.03;;
13580;SDS011;6861;46.170;7.222;2023-05-07T04:51:57;3.67;;;1.98;;
13580;SDS011;6861;46.170;7.222;2023-05-07T04:54:26;2.53;;;2.17;;
13580;SDS011;6861;46.170;7.222;2023-05-07T04:56:54;2.10;;;1.90;;
13580;SDS011;6861;46.170;7.222;2023-05-07T04:59:22;3.22;;;2.35;;
13580;SDS011;6861;46.170;7.222;2023-05-07T05:01:52;4.28;;;2.13;;
13580;SDS011;6861;46.170;7.222;2023-05-07T05:04:20;7.72;;;2.33;;
13580;SDS011;6861;46.170;7.222;2023-05-07T05:06:48;3.53;;;2.10;;
13580;SDS011;6861;46.170;7.222;2023-05-07T05:09:17;2.50;;;2.28;;
13580;SDS011;6861;46.170;7.222;2023-05-07T05:11:45;3.63;;;2.67;;
13580;SDS011;6861;46.170;7.222;2023-05-07T05:14:13;3.95;;;2.00;;
13580;SDS011;6861;46.170;7.222;2023-05-07T05:16:41;3.85;;;2.00;;
13580;SDS011;6861;46.170;7.222;2023-05-07T05:19:11;3.15;;;2.08;;
13580;SDS011;6861;46.170;7.222;2023-05-07T05:21:39;2.72;;;2.10;;
13580;SDS011;6861;46.170;7.222;2023-05-07T05:24:07;4.45;;;2.13;;
13580;SDS011;6861;46.170;7.222;2023-05-07T05:26:36;2.70;;;1.98;;
13580;SDS011;6861;46.170;7.222;2023-05-07T05:29:04;3.42;;;2.25;;
13580;SDS011;6861;46.170;7.222;2023-05-07T05:31:32;2.53;;;1.70;;
13580;SDS011;6861;46.170;7.222;2023-05-07T05:34:01;2.42;;;1.90;;
13580;SDS011;6861;46.170;7.222;2023-05-07T05:36:31;4.78;;;1.90;;
13580;SDS011;6861;46.170;7.222;2023-05-07T05:38:59;5.13;;;2.10;;
13580;SDS011;6861;46.170;7.222;2023-05-07T05:41:27;4.63;;;1.95;;
13580;SDS011;6861;46.170;7.222;2023-05-07T05:43:56;3.28;;;2.00;;
13580;SDS011;6861;46.170;7.222;2023-05-07T05:46:24;4.22;;;1.70;;
13580;SDS011;6861;46.170;7.222;2023-05-07T05:48:52;5.22;;;1.90;;
13580;SDS011;6861;46.170;7.222;2023-05-07T05:51:20;3.58;;;2.08;;
13580;SDS011;6861;46.170;7.222;2023-05-07T05:53:50;3.58;;;2.00;;
13580;SDS011;6861;46.170;7.222;2023-05-07T05:56:18;2.70;;;2.03;;
13580;SDS011;6861;46.170;7.222;2023-05-07T05:58:47;4.80;;;2.30;;
13580;SDS011;6861;46.170;7.222;2023-05-07T06:01:15;1.95;;;1.75;;
13580;SDS011;6861;46.170;7.222;2023-05-07T06:03:45;4.82;;;2.20;;
13580;SDS011;6861;46.170;7.222;2023-05-07T06:06:13;2.17;;;1.98;;
13580;SDS011;6861;46.170;7.222;2023-05-07T06:08:42;4.10;;;2.20;;
13580;SDS011;6861;46.170;7.222;2023-05-07T06:11:11;5.00;;;2.05;;
13580;SDS011;6861;46.170;7.222;2023-05-07T06:13:40;2.35;;;1.83;;
13580;SDS011;6861;46.170;7.222;2023-05-07T06:16:08;4.18;;;2.05;;
13580;SDS011;6861;46.170;7.222;2023-05-07T06:18:36;5.38;;;1.67;;
13580;SDS011;6861;46.170;7.222;2023-05-07T06:21:04;3.67;;;1.85;;
13580;SDS011;6861;46.170;7.222;2023-05-07T06:23:32;2.00;;;1.73;;
13580;SDS011;6861;46.170;7.222;2023-05-07T06:26:01;2.42;;;1.83;;
13580;SDS011;6861;46.170;7.222;2023-05-07T06:28:31;1.98;;;1.65;;
13580;SDS011;6861;46.170;7.222;2023-05-07T06:31:10;5.35;;;1.98;;
13580;SDS011;6861;46.170;7.222;2023-05-07T06:33:39;2.88;;;2.15;;
13580;SDS011;6861;46.170;7.222;2023-05-07T06:36:08;2.97;;;2.00;;
13580;SDS011;6861;46.170;7.222;2023-05-07T06:38:36;2.95;;;1.90;;
13580;SDS011;6861;46.170;7.222;2023-05-07T06:41:05;4.03;;;1.95;;
13580;SDS011;6861;46.170;7.222;2023-05-07T06:43:35;2.50;;;1.85;;
13580;SDS011;6861;46.170;7.222;2023-05-07T06:46:03;2.40;;;2.20;;
13580;SDS011;6861;46.170;7.222;2023-05-07T06:48:31;3.33;;;1.80;;
13580;SDS011;6861;46.170;7.222;2023-05-07T06:51:00;3.10;;;2.03;;
13580;SDS011;6861;46.170;7.222;2023-05-07T06:53:28;4.78;;;2.25;;
13580;SDS011;6861;46.170;7.222;2023-05-07T06:55:57;4.13;;;1.80;;
13580;SDS011;6861;46.170;7.222;2023-05-07T06:58:25;3.90;;;2.00;;
13580;SDS011;6861;46.170;7.222;2023-05-07T07:00:55;4.20;;;2.00;;
13580;SDS011;6861;46.170;7.222;2023-05-07T07:03:23;2.30;;;2.10;;
13580;SDS011;6861;46.170;7.222;2023-05-07T07:05:51;4.15;;;2.25;;
13580;SDS011;6861;46.170;7.222;2023-05-07T07:08:21;2.67;;;1.77;;
13580;SDS011;6861;46.170;7.222;2023-05-07T07:10:49;2.33;;;2.00;;
13580;SDS011;6861;46.170;7.222;2023-05-07T07:13:17;3.92;;;2.03;;
13580;SDS011;6861;46.170;7.222;2023-05-07T07:15:46;6.10;;;1.88;;
13580;SDS011;6861;46.170;7.222;2023-05-07T07:18:15;5.45;;;2.00;;
13580;SDS011;6861;46.170;7.222;2023-05-07T07:20:44;2.92;;;1.80;;
13580;SDS011;6861;46.170;7.222;2023-05-07T07:23:12;4.50;;;1.88;;
13580;SDS011;6861;46.170;7.222;2023-05-07T07:25:40;2.88;;;1.70;;
13580;SDS011;6861;46.170;7.222;2023-05-07T07:28:08;2.50;;;1.73;;
13580;SDS011;6861;46.170;7.222;2023-05-07T07:30:37;1.88;;;1.60;;
13580;SDS011;6861;46.170;7.222;2023-05-07T07:33:06;2.95;;;1.55;;
13580;SDS011;6861;46.170;7.222;2023-05-07T07:35:36;3.20;;;1.60;;
13580;SDS011;6861;46.170;7.222;2023-05-07T07:38:04;3.92;;;1.70;;
13580;SDS011;6861;46.170;7.222;2023-05-07T07:40:34;2.28;;;1.63;;
13580;SDS011;6861;46.170;7.222;2023-05-07T07:43:02;4.15;;;1.80;;
13580;SDS011;6861;46.170;7.222;2023-05-07T07:45:31;2.42;;;1.92;;
13580;SDS011;6861;46.170;7.222;2023-05-07T07:47:59;3.00;;;1.70;;
13580;SDS011;6861;46.170;7.222;2023-05-07T07:50:27;2.55;;;1.60;;
13580;SDS011;6861;46.170;7.222;2023-05-07T07:53:12;4.25;;;1.80;;
13580;SDS011;6861;46.170;7.222;2023-05-07T07:55:40;3.28;;;1.63;;
13580;SDS011;6861;46.170;7.222;2023-05-07T07:58:08;2.92;;;1.75;;
13580;SDS011;6861;46.170;7.222;2023-05-07T08:00:36;3.28;;;1.80;;
13580;SDS011;6861;46.170;7.222;2023-05-07T08:03:04;3.95;;;1.58;;
13580;SDS011;6861;46.170;7.222;2023-05-07T08:05:34;3.08;;;1.70;;
13580;SDS011;6861;46.170;7.222;2023-05-07T08:08:02;4.00;;;1.70;;
13580;SDS011;6861;46.170;7.222;2023-05-07T08:10:32;3.88;;;1.60;;
13580;SDS011;6861;46.170;7.222;2023-05-07T08:13:04;3.85;;;1.50;;
13580;SDS011;6861;46.170;7.222;2023-05-07T08:15:34;3.80;;;1.75;;
13580;SDS011;6861;46.170;7.222;2023-05-07T08:18:02;2.72;;;1.50;;
13580;SDS011;6861;46.170;7.222;2023-05-07T08:20:31;3.00;;;1.75;;
13580;SDS011;6861;46.170;7.222;2023-05-07T08:22:59;3.10;;;1.70;;
13580;SDS011;6861;46.170;7.222;2023-05-07T08:25:28;2.22;;;1.70;;
13580;SDS011;6861;46.170;7.222;2023-05-07T08:27:57;2.95;;;2.00;;
13580;SDS011;6861;46.170;7.222;2023-05-07T08:30:25;3.05;;;1.55;;
13580;SDS011;6861;46.170;7.222;2023-05-07T08:32:54;2.70;;;1.70;;
13580;SDS011;6861;46.170;7.222;2023-05-07T08:35:22;2.85;;;1.50;;
13580;SDS011;6861;46.170;7.222;2023-05-07T08:37:51;3.70;;;1.88;;
13580;SDS011;6861;46.170;7.222;2023-05-07T08:40:20;3.67;;;1.73;;
13580;SDS011;6861;46.170;7.222;2023-05-07T08:42:52;2.95;;;1.63;;
13580;SDS011;6861;46.170;7.222;2023-05-07T08:45:22;2.47;;;1.55;;
13580;SDS011;6861;46.170;7.222;2023-05-07T08:47:52;2.85;;;1.70;;
13580;SDS011;6861;46.170;7.222;2023-05-07T08:50:26;3.03;;;2.00;;
13580;SDS011;6861;46.170;7.222;2023-05-07T08:52:54;3.42;;;1.60;;
13580;SDS011;6861;46.170;7.222;2023-05-07T08:55:23;1.85;;;1.50;;
13580;SDS011;6861;46.170;7.222;2023-05-07T08:57:52;1.75;;;1.27;;
13580;SDS011;6861;46.170;7.222;2023-05-07T09:00:20;3.47;;;1.60;;
13580;SDS011;6861;46.170;7.222;2023-05-07T09:02:49;1.85;;;1.50;;
13580;SDS011;6861;46.170;7.222;2023-05-07T09:05:18;2.38;;;1.40;;
13580;SDS011;6861;46.170;7.222;2023-05-07T09:07:46;3.30;;;1.80;;
13580;SDS011;6861;46.170;7.222;2023-05-07T09:10:16;3.08;;;1.73;;
13580;SDS011;6861;46.170;7.222;2023-05-07T09:12:46;3.75;;;1.50;;
13580;SDS011;6861;46.170;7.222;2023-05-07T09:15:14;2.65;;;1.20;;
13580;SDS011;6861;46.170;7.222;2023-05-07T09:17:43;2.45;;;1.45;;
13580;SDS011;6861;46.170;7.222;2023-05-07T09:20:13;1.45;;;1.27;;
13580;SDS011;6861;46.170;7.222;2023-05-07T09:22:41;2.22;;;1.50;;
13580;SDS011;6861;46.170;7.222;2023-05-07T09:25:10;3.25;;;1.48;;
13580;SDS011;6861;46.170;7.222;2023-05-07T09:27:41;3.03;;;1.30;;
13580;SDS011;6861;46.170;7.222;2023-05-07T09:30:10;3.58;;;1.20;;
13580;SDS011;6861;46.170;7.222;2023-05-07T09:32:39;1.50;;;1.20;;
13580;SDS011;6861;46.170;7.222;2023-05-07T09:35:09;2.45;;;1.30;;
13580;SDS011;6861;46.170;7.222;2023-05-07T09:37:44;3.17;;;1.38;;
13580;SDS011;6861;46.170;7.222;2023-05-07T09:40:20;2.75;;;1.35;;
13580;SDS011;6861;46.170;7.222;2023-05-07T09:42:48;1.40;;;1.30;;
13580;SDS011;6861;46.170;7.222;2023-05-07T09:45:21;1.80;;;1.40;;
13580;SDS011;6861;46.170;7.222;2023-05-07T09:47:53;1.85;;;1.42;;
13580;SDS011;6861;46.170;7.222;2023-05-07T09:50:26;2.10;;;1.20;;
13580;SDS011;6861;46.170;7.222;2023-05-07T09:52:56;2.67;;;1.30;;
13580;SDS011;6861;46.170;7.222;2023-05-07T09:55:24;4.43;;;1.30;;
13580;SDS011;6861;46.170;7.222;2023-05-07T09:57:53;2.47;;;1.55;;
13580;SDS011;6861;46.170;7.222;2023-05-07T10:00:22;2.53;;;1.27;;
13580;SDS011;6861;46.170;7.222;2023-05-07T10:02:51;1.60;;;1.35;;
13580;SDS011;6861;46.170;7.222;2023-05-07T10:05:20;1.50;;;1.10;;
13580;SDS011;6861;46.170;7.222;2023-05-07T10:07:51;2.28;;;1.13;;
13580;SDS011;6861;46.170;7.222;2023-05-07T10:10:20;2.80;;;1.10;;
13580;SDS011;6861;46.170;7.222;2023-05-07T10:12:49;2.50;;;1.40;;
13580;SDS011;6861;46.170;7.222;2023-05-07T10:15:18;1.85;;;1.15;;
13580;SDS011;6861;46.170;7.222;2023-05-07T10:17:47;2.35;;;1.17;;
13580;SDS011;6861;46.170;7.222;2023-05-07T10:20:17;2.70;;;1.50;;
13580;SDS011;6861;46.170;7.222;2023-05-07T10:22:46;3.00;;;1.20;;
13580;SDS011;6861;46.170;7.222;2023-05-07T10:25:18;2.50;;;1.50;;
13580;SDS011;6861;46.170;7.222;2023-05-07T10:27:49;1.92;;;1.40;;
13580;SDS011;6861;46.170;7.222;2023-05-07T10:30:23;1.73;;;1.40;;
13580;SDS011;6861;46.170;7.222;2023-05-07T10:33:03;2.10;;;1.50;;
13580;SDS011;6861;46.170;7.222;2023-05-07T10:35:36;2.70;;;1.70;;
13580;SDS011;6861;46.170;7.222;2023-05-07T10:38:08;1.33;;;1.23;;
13580;SDS011;6861;46.170;7.222;2023-05-07T10:40:38;2.55;;;1.50;;
13580;SDS011;6861;46.170;7.222;2023-05-07T10:43:07;2.50;;;1.50;;
13580;SDS011;6861;46.170;7.222;2023-05-07T10:45:36;2.15;;;1.15;;
13580;SDS011;6861;46.170;7.222;2023-05-07T10:48:08;3.58;;;1.42;;
13580;SDS011;6861;46.170;7.222;2023-05-07T10:50:40;3.20;;;2.10;;
13580;SDS011;6861;46.170;7.222;2023-05-07T10:58:55;1.77;;;1.25;;
13580;SDS011;6861;46.170;7.222;2023-05-07T11:01:50;4.00;;;1.75;;
13580;SDS011;6861;46.170;7.222;2023-05-07T11:04:21;3.20;;;1.55;;
13580;SDS011;6861;46.170;7.222;2023-05-07T11:09:54;2.17;;;1.70;;
13580;SDS011;6861;46.170;7.222;2023-05-07T11:12:48;2.42;;;1.55;;
13580;SDS011;6861;46.170;7.222;2023-05-07T11:15:37;2.83;;;1.90;;
13580;SDS011;6861;46.170;7.222;2023-05-07T11:18:12;2.10;;;1.58;;
13580;SDS011;6861;46.170;7.222;2023-05-07T11:20:49;5.53;;;1.90;;
13580;SDS011;6861;46.170;7.222;2023-05-07T11:26:28;2.40;;;1.92;;
13580;SDS011;6861;46.170;7.222;2023-05-07T11:28:59;3.35;;;2.03;;
13580;SDS011;6861;46.170;7.222;2023-05-07T11:31:27;3.03;;;1.95;;
13580;SDS011;6861;46.170;7.222;2023-05-07T11:33:57;5.53;;;1.95;;
13580;SDS011;6861;46.170;7.222;2023-05-07T11:36:25;2.45;;;1.60;;
13580;SDS011;6861;46.170;7.222;2023-05-07T11:38:59;4.78;;;1.90;;
13580;SDS011;6861;46.170;7.222;2023-05-07T11:41:33;3.55;;;1.67;;
13580;SDS011;6861;46.170;7.222;2023-05-07T11:44:04;3.10;;;1.85;;
13580;SDS011;6861;46.170;7.222;2023-05-07T11:46:32;2.63;;;1.90;;
13580;SDS011;6861;46.170;7.222;2023-05-07T11:49:01;3.53;;;1.95;;
13580;SDS011;6861;46.170;7.222;2023-05-07T11:51:29;3.67;;;2.00;;
13580;SDS011;6861;46.170;7.222;2023-05-07T11:53:58;3.08;;;1.80;;
13580;SDS011;6861;46.170;7.222;2023-05-07T11:56:26;1.98;;;1.58;;
13580;SDS011;6861;46.170;7.222;2023-05-07T11:58:54;3.95;;;1.60;;
13580;SDS011;6861;46.170;7.222;2023-05-07T12:01:23;2.83;;;1.80;;
13580;SDS011;6861;46.170;7.222;2023-05-07T12:03:52;1.77;;;1.60;;
13580;SDS011;6861;46.170;7.222;2023-05-07T12:06:20;3.28;;;1.60;;
13580;SDS011;6861;46.170;7.222;2023-05-07T12:08:48;1.70;;;1.40;;
13580;SDS011;6861;46.170;7.222;2023-05-07T12:11:22;2.70;;;1.88;;
13580;SDS011;6861;46.170;7.222;2023-05-07T12:13:51;4.93;;;1.92;;
13580;SDS011;6861;46.170;7.222;2023-05-07T12:16:26;4.22;;;1.92;;
13580;SDS011;6861;46.170;7.222;2023-05-07T12:18:54;4.05;;;1.90;;
13580;SDS011;6861;46.170;7.222;2023-05-07T12:21:25;3.78;;;1.70;;
13580;SDS011;6861;46.170;7.222;2023-05-07T12:23:53;3.13;;;1.70;;
13580;SDS011;6861;46.170;7.222;2023-05-07T12:26:21;2.33;;;1.70;;
13580;SDS011;6861;46.170;7.222;2023-05-07T12:28:50;3.42;;;1.88;;
13580;SDS011;6861;46.170;7.222;2023-05-07T12:31:18;4.32;;;1.90;;
13580;SDS011;6861;46.170;7.222;2023-05-07T12:33:48;3.63;;;1.88;;
13580;SDS011;6861;46.170;7.222;2023-05-07T12:36:17;3.97;;;2.10;;
13580;SDS011;6861;46.170;7.222;2023-05-07T12:38:45;4.45;;;1.90;;
13580;SDS011;6861;46.170;7.222;2023-05-07T12:41:17;3.08;;;1.67;;
13580;SDS011;6861;46.170;7.222;2023-05-07T12:43:45;3.33;;;2.05;;
13580;SDS011;6861;46.170;7.222;2023-05-07T12:46:15;3.75;;;2.00;;
13580;SDS011;6861;46.170;7.222;2023-05-07T12:48:45;2.63;;;1.83;;
13580;SDS011;6861;46.170;7.222;2023-05-07T12:51:14;2.80;;;1.90;;
13580;SDS011;6861;46.170;7.222;2023-05-07T12:53:43;3.88;;;1.90;;
13580;SDS011;6861;46.170;7.222;2023-05-07T12:56:15;2.85;;;1.60;;
13580;SDS011;6861;46.170;7.222;2023-05-07T12:58:43;3.88;;;1.58;;
13580;SDS011;6861;46.170;7.222;2023-05-07T13:01:11;2.42;;;1.80;;
13580;SDS011;6861;46.170;7.222;2023-05-07T13:03:42;2.30;;;1.92;;
13580;SDS011;6861;46.170;7.222;2023-05-07T13:06:18;4.60;;;1.60;;
13580;SDS011;6861;46.170;7.222;2023-05-07T13:08:46;4.22;;;1.50;;
13580;SDS011;6861;46.170;7.222;2023-05-07T13:11:15;3.10;;;1.50;;
13580;SDS011;6861;46.170;7.222;2023-05-07T13:13:43;4.18;;;1.58;;
13580;SDS011;6861;46.170;7.222;2023-05-07T13:16:11;2.05;;;1.60;;
13580;SDS011;6861;46.170;7.222;2023-05-07T13:18:39;3.38;;;1.40;;
13580;SDS011;6861;46.170;7.222;2023-05-07T13:21:10;5.75;;;1.40;;
13580;SDS011;6861;46.170;7.222;2023-05-07T13:23:41;1.75;;;1.40;;
13580;SDS011;6861;46.170;7.222;2023-05-07T13:26:09;3.05;;;1.33;;
13580;SDS011;6861;46.170;7.222;2023-05-07T13:28:51;2.95;;;1.30;;
13580;SDS011;6861;46.170;7.222;2023-05-07T13:31:20;1.35;;;1.15;;
13580;SDS011;6861;46.170;7.222;2023-05-07T13:33:48;1.88;;;1.25;;
13580;SDS011;6861;46.170;7.222;2023-05-07T13:36:16;5.72;;;1.23;;
13580;SDS011;6861;46.170;7.222;2023-05-07T13:38:46;2.22;;;1.20;;
13580;SDS011;6861;46.170;7.222;2023-05-07T13:41:15;6.03;;;1.40;;
13580;SDS011;6861;46.170;7.222;2023-05-07T13:43:43;2.22;;;1.20;;
13580;SDS011;6861;46.170;7.222;2023-05-07T13:46:11;2.83;;;1.10;;
13580;SDS011;6861;46.170;7.222;2023-05-07T13:48:39;3.90;;;1.20;;
13580;SDS011;6861;46.170;7.222;2023-05-07T13:51:08;3.58;;;1.30;;
13580;SDS011;6861;46.170;7.222;2023-05-07T13:53:36;2.30;;;1.50;;
13580;SDS011;6861;46.170;7.222;2023-05-07T13:56:06;3.42;;;1.40;;
13580;SDS011;6861;46.170;7.222;2023-05-07T13:58:34;1.40;;;1.30;;
13580;SDS011;6861;46.170;7.222;2023-05-07T14:01:10;2.58;;;1.20;;
13580;SDS011;6861;46.170;7.222;2023-05-07T14:03:38;1.65;;;1.17;;
13580;SDS011;6861;46.170;7.222;2023-05-07T14:06:07;1.25;;;1.15;;
13580;SDS011;6861;46.170;7.222;2023-05-07T14:08:35;1.88;;;1.40;;
13580;SDS011;6861;46.170;7.222;2023-05-07T14:11:03;2.10;;;1.30;;
13580;SDS011;6861;46.170;7.222;2023-05-07T14:13:33;2.35;;;1.10;;
13580;SDS011;6861;46.170;7.222;2023-05-07T14:16:02;2.15;;;1.40;;
13580;SDS011;6861;46.170;7.222;2023-05-07T14:18:31;3.10;;;1.55;;
13580;SDS011;6861;46.170;7.222;2023-05-07T14:21:00;3.20;;;1.60;;
13580;SDS011;6861;46.170;7.222;2023-05-07T14:23:28;2.85;;;1.60;;
13580;SDS011;6861;46.170;7.222;2023-05-07T14:25:57;2.22;;;1.48;;
13580;SDS011;6861;46.170;7.222;2023-05-07T14:28:25;4.82;;;1.50;;
13580;SDS011;6861;46.170;7.222;2023-05-07T14:30:55;3.75;;;1.73;;
13580;SDS011;6861;46.170;7.222;2023-05-07T14:33:23;3.10;;;1.60;;
13580;SDS011;6861;46.170;7.222;2023-05-07T14:35:51;1.52;;;1.23;;
13580;SDS011;6861;46.170;7.222;2023-05-07T14:38:19;3.00;;;1.40;;
13580;SDS011;6861;46.170;7.222;2023-05-07T14:40:48;2.28;;;1.38;;
13580;SDS011;6861;46.170;7.222;2023-05-07T14:43:16;3.28;;;1.17;;
13580;SDS011;6861;46.170;7.222;2023-05-07T14:45:44;1.70;;;1.20;;
13580;SDS011;6861;46.170;7.222;2023-05-07T14:48:15;1.95;;;1.40;;
13580;SDS011;6861;46.170;7.222;2023-05-07T14:50:46;3.33;;;1.48;;
13580;SDS011;6861;46.170;7.222;2023-05-07T14:53:15;1.65;;;1.20;;
13580;SDS011;6861;46.170;7.222;2023-05-07T14:55:43;1.55;;;1.20;;
13580;SDS011;6861;46.170;7.222;2023-05-07T14:58:11;3.17;;;1.38;;
13580;SDS011;6861;46.170;7.222;2023-05-07T15:00:40;1.27;;;1.13;;
13580;SDS011;6861;46.170;7.222;2023-05-07T15:03:08;1.92;;;1.40;;
13580;SDS011;6861;46.170;7.222;2023-05-07T15:05:39;2.83;;;1.50;;
13580;SDS011;6861;46.170;7.222;2023-05-07T15:08:08;3.50;;;1.40;;
13580;SDS011;6861;46.170;7.222;2023-05-07T15:10:37;3.20;;;1.45;;
13580;SDS011;6861;46.170;7.222;2023-05-07T15:13:08;2.75;;;1.10;;
13580;SDS011;6861;46.170;7.222;2023-05-07T15:15:41;1.90;;;1.20;;
13580;SDS011;6861;46.170;7.222;2023-05-07T15:18:10;2.58;;;1.40;;
13580;SDS011;6861;46.170;7.222;2023-05-07T15:20:39;1.90;;;1.20;;
13580;SDS011;6861;46.170;7.222;2023-05-07T15:23:08;1.77;;;1.27;;
13580;SDS011;6861;46.170;7.222;2023-05-07T15:25:38;1.65;;;1.33;;